Time;durP1;ratioP1;P1;durP2;ratioP2;P2;SDS_P1;SDS_P2;PMS_P1;PMS_P2;Temp;Humidity;BMP_temperature;BMP_pressure;BME280_temperature;BME280_humidity;BME280_pressure;Samples;Min_cycle;Max_cycle;Signal;HPM_P1;HPM_P2
2022/07/21 00:01:11;;;;;;;8.05;6.68;;;;;;;21.93;66.33;101770.22;4996602;28;20092;-77
2022/07/21 00:03:37;;;;;;;6.97;6.38;;;;;;;21.91;66.15;101770.34;4980441;28;20044;-77
2022/07/21 00:06:03;;;;;;;8.40;6.68;;;;;;;21.91;66.34;101770.34;4996979;28;20065;-77
2022/07/21 00:08:28;;;;;;;7.55;6.80;;;;;;;21.90;66.47;101763.28;4980568;28;20048;-77
2022/07/21 00:10:54;;;;;;;7.80;7.03;;;;;;;21.89;66.43;101756.28;4997361;28;20065;-76
2022/07/21 00:13:19;;;;;;;7.40;6.72;;;;;;;21.88;66.72;101759.03;4997824;28;20403;-76
2022/07/21 00:15:45;;;;;;;7.63;6.90;;;;;;;21.87;66.66;101762.69;4996997;28;20150;-77
2022/07/21 00:18:11;;;;;;;7.78;6.97;;;;;;;21.86;66.79;101767.16;4997537;28;20046;-77
2022/07/21 00:20:36;;;;;;;8.00;7.30;;;;;;;21.84;67.29;101763.75;4997332;28;20218;-77
2022/07/21 00:23:02;;;;;;;8.68;6.80;;;;;;;21.83;66.86;101760.25;4996871;28;20042;-77
2022/07/21 00:25:29;;;;;;;8.27;7.45;;;;;;;21.81;66.97;101743.50;4983597;28;20045;-76
2022/07/21 00:27:54;;;;;;;8.45;7.78;;;;;;;21.82;66.99;101747.03;4997000;28;20296;-77
2022/07/21 00:30:20;;;;;;;8.23;7.43;;;;;;;21.80;67.21;101755.13;4997600;28;20340;-77
2022/07/21 00:32:45;;;;;;;7.63;6.95;;;;;;;21.79;67.40;101756.13;4985258;28;20053;-77
2022/07/21 00:35:11;;;;;;;8.43;7.53;;;;;;;21.78;67.47;101754.41;4987361;28;20117;-77
2022/07/21 00:37:38;;;;;;;7.78;7.05;;;;;;;21.78;67.77;101759.72;4980013;28;20366;-77
2022/07/21 00:40:05;;;;;;;10.02;7.88;;;;;;;21.78;67.92;101748.22;4997157;28;20049;-77
2022/07/21 00:42:31;;;;;;;8.68;7.93;;;;;;;21.76;67.68;101750.16;4996849;28;20217;-77
2022/07/21 00:44:58;;;;;;;8.40;7.50;;;;;;;21.75;67.52;101745.78;4996720;28;20229;-77
2022/07/21 00:47:28;;;;;;;7.78;7.07;;;;;;;21.75;67.78;101737.78;4979206;28;20041;-77
2022/07/21 00:49:55;;;;;;;8.63;7.93;;;;;;;21.74;68.07;101744.94;4995463;28;20047;-77
2022/07/21 00:52:20;;;;;;;8.65;7.85;;;;;;;21.73;68.12;101750.38;4996434;28;20050;-77
2022/07/21 00:54:47;;;;;;;8.60;7.88;;;;;;;21.72;67.92;101754.00;4979274;28;20038;-77
2022/07/21 00:57:13;;;;;;;9.77;8.30;;;;;;;21.70;68.35;101751.44;4996361;28;20054;-77
2022/07/21 00:59:40;;;;;;;8.23;7.63;;;;;;;21.69;68.29;101748.91;4997212;28;20053;-77
2022/07/21 01:04:53;;;;;;;9.63;8.73;;;;;;;21.67;68.64;101751.69;4894305;28;20054;-77
2022/07/21 01:07:20;;;;;;;8.80;8.00;;;;;;;21.65;68.86;101754.44;5000807;28;20341;-78
2022/07/21 01:09:45;;;;;;;9.55;8.65;;;;;;;21.63;68.74;101747.53;4994985;28;20026;-77
2022/07/21 01:12:11;;;;;;;9.73;8.82;;;;;;;21.61;69.08;101741.44;4996597;28;20410;-77
2022/07/21 01:14:37;;;;;;;9.25;8.43;;;;;;;21.61;68.91;101752.09;4995851;28;20097;-78
2022/07/21 01:17:03;;;;;;;10.30;9.30;;;;;;;21.58;68.88;101747.88;4996926;28;20034;-77
2022/07/21 01:19:29;;;;;;;9.63;8.82;;;;;;;21.58;69.30;101752.34;4996769;28;20041;-78
2022/07/21 01:21:54;;;;;;;9.85;9.05;;;;;;;21.56;69.04;101744.47;4996344;28;20084;-78
2022/07/21 01:24:19;;;;;;;10.05;9.25;;;;;;;21.56;69.14;101747.13;4963217;28;20022;-77
2022/07/21 01:26:48;;;;;;;9.55;8.70;;;;;;;21.55;69.16;101737.41;4996670;28;20326;-78
2022/07/21 01:29:15;;;;;;;10.25;9.35;;;;;;;21.54;69.20;101729.53;4996332;28;20168;-77
2022/07/21 01:31:43;;;;;;;10.30;9.32;;;;;;;21.52;69.39;101718.13;4996639;28;20050;-77
2022/07/21 01:34:09;;;;;;;9.98;9.07;;;;;;;21.51;69.40;101717.28;4996093;28;20493;-78
2022/07/21 01:36:35;;;;;;;8.90;8.07;;;;;;;21.51;69.25;101711.13;4979167;28;20256;-77
2022/07/21 01:41:45;;;;;;;9.55;8.73;;;;;;;21.50;68.76;101720.06;4996626;28;20060;-78
2022/07/21 01:44:12;;;;;;;9.75;8.80;;;;;;;21.49;68.93;101719.22;4996147;28;20287;-78
2022/07/21 01:46:44;;;;;;;11.43;10.23;;;;;;;21.49;69.34;101731.69;4996830;28;20403;-79
2022/07/21 01:49:10;;;;;;;11.82;9.20;;;;;;;21.48;69.24;101730.84;4995800;28;20042;-78
2022/07/21 01:51:36;;;;;;;10.88;9.98;;;;;;;21.46;69.52;101727.44;4996136;28;20171;-78
2022/07/21 01:54:02;;;;;;;10.70;9.70;;;;;;;21.45;69.55;101731.06;4996192;28;20026;-77
2022/07/21 01:56:28;;;;;;;10.55;9.43;;;;;;;21.45;69.64;101717.75;4995167;28;20054;-77
2022/07/21 01:58:55;;;;;;;8.98;8.15;;;;;;;21.44;69.75;101714.19;4996388;28;20038;-77
2022/07/21 02:01:23;;;;;;;10.20;9.13;;;;;;;21.43;69.65;101706.31;4996616;28;20261;-78
2022/07/21 02:03:49;;;;;;;9.70;8.80;;;;;;;21.42;69.43;101704.59;4979342;28;20037;-77
2022/07/21 02:06:15;;;;;;;9.98;9.02;;;;;;;21.41;68.52;101705.56;4962814;28;20026;-77
2022/07/21 02:08:44;;;;;;;10.35;8.90;;;;;;;21.42;68.43;101699.28;4995928;28;20042;-78
2022/07/21 02:11:11;;;;;;;10.30;9.27;;;;;;;21.41;68.69;101697.56;4994629;28;20040;-78
2022/07/21 02:13:36;;;;;;;9.38;8.57;;;;;;;21.41;68.47;101698.44;4999405;28;20046;-75
2022/07/21 02:16:02;;;;;;;10.10;9.20;;;;;;;21.41;68.68;101708.22;5000551;28;20032;-75
2022/07/21 02:18:28;;;;;;;11.05;9.95;;;;;;;21.41;69.16;101714.44;4986954;28;20066;-75
2022/07/21 02:20:54;;;;;;;12.43;11.13;;;;;;;21.40;69.27;101710.03;5005050;28;20038;-75
2022/07/21 02:23:20;;;;;;;12.13;10.70;;;;;;;21.40;69.39;101711.88;5005112;28;20045;-75
2022/07/21 02:25:46;;;;;;;12.10;10.95;;;;;;;21.39;69.44;101710.16;5005147;28;20049;-75
2022/07/21 02:28:12;;;;;;;14.82;11.65;;;;;;;21.38;69.49;101701.31;5005223;28;20046;-75
2022/07/21 02:30:38;;;;;;;15.52;11.55;;;;;;;21.38;69.82;101709.31;4987761;28;20046;-75
2022/07/21 02:33:03;;;;;;;13.50;11.02;;;;;;;21.37;69.63;101704.94;5003479;28;20124;-75
2022/07/21 02:35:29;;;;;;;13.05;11.27;;;;;;;21.38;69.69;101713.78;4987696;28;20050;-75
2022/07/21 02:37:55;;;;;;;13.48;11.38;;;;;;;21.35;70.16;101698.88;5003049;28;20033;-75
2022/07/21 02:40:21;;;;;;;11.75;10.68;;;;;;;21.35;70.12;101690.88;5004921;28;20267;-75
2022/07/21 02:42:46;;;;;;;11.05;9.98;;;;;;;21.33;69.64;101687.47;5003992;28;20030;-75
2022/07/21 02:45:11;;;;;;;12.10;10.23;;;;;;;21.34;69.49;101683.88;5003239;28;20014;-75
2022/07/21 02:47:55;;;;;;;11.75;10.60;;;;;;;21.33;69.80;101687.47;5004545;28;20038;-75
2022/07/21 02:50:23;;;;;;;11.45;10.32;;;;;;;21.33;69.82;101683.97;4988049;28;20042;-75
2022/07/21 02:52:49;;;;;;;14.47;10.40;;;;;;;21.32;70.11;101680.47;5004038;28;20114;-78
2022/07/21 02:55:15;;;;;;;12.20;10.93;;;;;;;21.30;70.17;101679.69;4978293;28;20097;-75
2022/07/21 02:57:41;;;;;;;11.63;10.45;;;;;;;21.30;70.28;101671.69;4994681;28;20061;-75
2022/07/21 03:00:08;;;;;;;11.55;10.25;;;;;;;21.29;70.03;101678.00;4998055;28;20321;-75
2022/07/21 03:02:35;;;;;;;11.95;10.80;;;;;;;21.27;69.88;101683.44;4980496;28;20038;-75
2022/07/21 03:05:01;;;;;;;14.52;11.38;;;;;;;21.28;70.20;101685.16;4995390;28;20041;-75
2022/07/21 03:07:27;;;;;;;13.43;11.00;;;;;;;21.27;70.11;101683.44;4997898;28;20034;-75
2022/07/21 03:09:52;;;;;;;12.95;10.75;;;;;;;21.27;70.33;101680.78;4997790;28;20110;-75
2022/07/21 03:12:18;;;;;;;14.32;10.90;;;;;;;21.26;70.51;101684.41;4980355;28;20093;-75
2022/07/21 03:14:43;;;;;;;15.15;11.45;;;;;;;21.26;70.35;101678.22;4980655;28;20237;-75
2022/07/21 03:17:08;;;;;;;12.90;11.32;;;;;;;21.25;70.50;101677.38;4997716;28;20034;-75
2022/07/21 03:19:34;;;;;;;12.45;11.15;;;;;;;21.26;70.65;101678.22;4997977;28;20061;-75
2022/07/21 03:21:59;;;;;;;13.82;11.00;;;;;;;21.24;70.84;101678.34;4996340;28;20322;-75
2022/07/21 03:24:25;;;;;;;14.68;10.60;;;;;;;21.24;70.63;101682.81;4997036;28;20030;-75
2022/07/21 03:26:50;;;;;;;13.10;11.32;;;;;;;21.24;70.79;101683.66;4997884;28;20093;-75
2022/07/21 03:29:16;;;;;;;11.35;10.23;;;;;;;21.23;70.31;101689.97;4996276;28;20080;-75
2022/07/21 03:31:41;;;;;;;14.05;11.73;;;;;;;21.23;69.94;101678.47;4997607;28;20038;-75
2022/07/21 03:34:07;;;;;;;13.20;11.27;;;;;;;21.24;70.62;101682.81;4997113;28;20038;-75
2022/07/21 03:36:32;;;;;;;12.68;11.38;;;;;;;21.23;70.49;101679.31;4998795;28;20042;-75
2022/07/21 03:38:57;;;;;;;12.68;10.65;;;;;;;21.23;70.27;101678.47;4996064;28;20045;-75
2022/07/21 03:41:23;;;;;;;13.30;11.75;;;;;;;21.22;70.05;101676.75;4976365;28;20109;-75
2022/07/21 03:43:48;;;;;;;13.43;11.57;;;;;;;21.22;69.83;101682.09;4990051;28;20034;-75
2022/07/21 03:46:14;;;;;;;13.05;11.85;;;;;;;21.22;70.18;101674.09;4997408;28;20022;-75
2022/07/21 03:48:39;;;;;;;13.80;12.18;;;;;;;21.21;70.26;101680.38;4997015;28;20041;-75
2022/07/21 03:51:05;;;;;;;12.05;10.95;;;;;;;21.22;70.64;101676.75;4980341;28;20042;-75
2022/07/21 03:53:30;;;;;;;15.43;11.90;;;;;;;21.20;70.40;101676.03;4978871;28;20315;-75
2022/07/21 03:55:56;;;;;;;14.00;12.50;;;;;;;21.20;70.56;101676.03;4997022;28;20057;-75
2022/07/21 03:58:21;;;;;;;13.15;11.88;;;;;;;21.18;70.82;101678.78;4995860;28;20068;-75
2022/07/21 04:00:46;;;;;;;11.93;10.70;;;;;;;21.19;70.77;101683.16;4979848;28;20050;-75
2022/07/21 04:03:12;;;;;;;12.90;11.07;;;;;;;21.17;70.88;101678.91;4979346;28;20061;-75
2022/07/21 04:05:39;;;;;;;12.98;10.63;;;;;;;21.18;70.73;101688.59;4995812;28;20113;-75
2022/07/21 04:08:06;;;;;;;14.98;10.75;;;;;;;21.18;70.51;101683.28;4997162;28;20165;-75
2022/07/21 04:10:35;;;;;;;16.42;10.85;;;;;;;21.17;70.64;101690.41;4996353;28;20056;-75
2022/07/21 04:13:03;;;;;;;12.07;10.75;;;;;;;21.16;70.95;101686.03;4995418;28;20073;-75
2022/07/21 04:15:28;;;;;;;11.70;10.15;;;;;;;21.16;70.89;101685.19;4996486;28;20038;-75
2022/07/21 04:17:54;;;;;;;10.40;8.98;;;;;;;21.15;70.57;101691.47;4997115;28;20049;-75
2022/07/21 04:20:20;;;;;;;12.05;9.77;;;;;;;21.14;70.50;101698.63;4995973;28;20052;-75
2022/07/21 04:22:47;;;;;;;10.70;9.60;;;;;;;21.15;70.45;101694.13;4993953;28;20044;-75
2022/07/21 04:25:14;;;;;;;;;;;;;;;21.14;70.75;101693.31;4977219;28;20245;-75
2022/07/21 04:27:41;;;;;;;13.70;9.60;;;;;;;21.13;70.64;101694.25;4995705;28;19910;-75
2022/07/21 04:30:08;;;;;;;12.90;9.43;;;;;;;21.13;70.87;101693.41;4995834;28;20447;-75
2022/07/21 04:32:34;;;;;;;11.73;9.32;;;;;;;21.12;71.02;101700.56;4976341;28;20175;-75
2022/07/21 04:35:00;;;;;;;18.63;9.98;;;;;;;21.11;70.86;101695.34;4994941;28;20352;-75
2022/07/21 04:37:26;;;;;;;14.98;10.00;;;;;;;21.10;71.16;101697.13;4992310;28;20050;-75
2022/07/21 04:39:51;;;;;;;13.10;9.38;;;;;;;21.10;70.73;101699.78;4993035;28;20061;-75
2022/07/21 04:42:17;;;;;;;12.80;9.48;;;;;;;21.09;70.80;101693.63;4976817;28;20048;-75
2022/07/21 04:44:42;;;;;;;10.38;8.25;;;;;;;21.09;70.81;101696.28;4976842;28;20046;-75
2022/07/21 04:47:07;;;;;;;13.60;8.98;;;;;;;21.09;70.62;101700.75;4995002;28;20363;-75
2022/07/21 04:49:33;;;;;;;14.05;9.10;;;;;;;21.09;70.54;101698.09;4994163;28;20229;-75
2022/07/21 04:52:01;;;;;;;9.50;8.32;;;;;;;21.09;70.40;101692.78;4977385;28;20361;-75
2022/07/21 04:54:27;;;;;;;;;;;;;;;21.08;70.26;101693.72;4994417;28;20105;-75
2022/07/21 04:56:52;;;;;;;15.20;9.40;;;;;;;21.06;70.34;101690.31;4994675;28;20232;-75
2022/07/21 04:59:18;;;;;;;11.25;8.18;;;;;;;21.06;70.29;101690.31;4993539;28;20058;-75
2022/07/21 05:01:43;;;;;;;11.55;7.90;;;;;;;21.06;70.17;101692.97;4994318;28;20109;-75
2022/07/21 05:04:08;;;;;;;10.93;8.57;;;;;;;21.06;70.37;101695.66;4992752;28;20253;-75
2022/07/21 05:06:34;;;;;;;10.27;8.90;;;;;;;21.05;69.66;101693.97;4976828;28;20042;-75
2022/07/21 05:09:00;;;;;;;10.48;8.10;;;;;;;21.04;69.52;101693.09;4994620;28;20038;-75
2022/07/21 05:11:25;;;;;;;11.52;8.63;;;;;;;21.03;69.82;101694.06;4973147;28;20400;-75
2022/07/21 05:13:51;;;;;;;15.00;9.63;;;;;;;21.04;69.47;101694.91;4974667;28;20341;-75
2022/07/21 05:16:16;;;;;;;15.43;11.35;;;;;;;21.04;69.70;101694.91;4971740;28;20058;-75
2022/07/21 05:18:42;;;;;;;21.83;12.52;;;;;;;21.03;70.23;101694.06;4993586;28;20036;-75
2022/07/21 05:21:07;;;;;;;18.08;12.13;;;;;;;21.02;70.47;101694.16;4993386;28;20069;-75
2022/07/21 05:23:32;;;;;;;20.27;13.00;;;;;;;21.03;70.76;101699.38;4994100;28;20038;-75
2022/07/21 05:25:58;;;;;;;19.88;12.18;;;;;;;21.03;71.17;101690.56;4976544;28;20046;-75
2022/07/21 05:28:23;;;;;;;20.27;12.13;;;;;;;21.03;71.42;101695.88;4992101;28;20053;-75
2022/07/21 05:30:49;;;;;;;21.88;14.20;;;;;;;21.03;71.77;101695.88;4976768;28;20037;-75
2022/07/21 05:33:14;;;;;;;25.75;13.80;;;;;;;21.01;72.25;101700.44;4993594;28;20116;-75
2022/07/21 05:35:40;;;;;;;24.60;13.43;;;;;;;21.01;72.26;101695.13;4994458;28;20034;-75
2022/07/21 05:38:05;;;;;;;16.20;10.60;;;;;;;20.99;71.54;101692.59;4993589;28;20349;-75
2022/07/21 05:40:30;;;;;;;20.63;12.60;;;;;;;20.99;71.11;101695.25;4960124;28;20038;-75
2022/07/21 05:42:56;;;;;;;18.27;10.90;;;;;;;20.97;70.27;101689.16;4993520;28;20042;-75
2022/07/21 05:45:21;;;;;;;14.57;10.55;;;;;;;20.97;70.67;101696.31;4975746;28;20041;-75
2022/07/21 05:47:47;;;;;;;21.08;11.95;;;;;;;20.97;70.58;101698.97;4976195;28;20046;-75
2022/07/21 05:50:12;;;;;;;16.50;10.68;;;;;;;20.96;70.30;101700.78;4975764;28;20038;-75
2022/07/21 05:52:38;;;;;;;15.20;10.35;;;;;;;20.96;70.30;101702.59;4993866;28;20034;-75
2022/07/21 05:55:04;;;;;;;15.98;9.88;;;;;;;20.95;70.15;101703.56;4997284;28;20366;-75
2022/07/21 05:57:29;;;;;;;13.15;9.27;;;;;;;20.94;69.94;101705.38;4997162;28;20299;-75
2022/07/21 05:59:55;;;;;;;16.33;10.05;;;;;;;20.93;70.05;101711.66;4997649;28;20046;-75
2022/07/21 06:02:20;;;;;;;14.93;8.93;;;;;;;20.91;69.79;101710.91;4996931;28;20050;-75
2022/07/21 06:04:45;;;;;;;13.93;9.52;;;;;;;20.91;69.86;101705.59;4980666;28;20084;-76
2022/07/21 06:07:11;;;;;;;15.25;10.15;;;;;;;20.89;70.13;101705.69;4997784;28;20042;-76
2022/07/21 06:09:36;;;;;;;15.48;9.40;;;;;;;20.90;70.14;101714.50;4998452;28;20084;-76
2022/07/21 06:12:02;;;;;;;16.23;9.52;;;;;;;20.89;69.96;101705.69;4997848;28;20026;-76
2022/07/21 06:14:31;;;;;;;10.40;8.88;;;;;;;20.88;69.86;101711.13;4995379;28;20255;-76
2022/07/21 06:16:56;;;;;;;;;;;;;;;20.87;70.23;101712.94;4982800;28;20084;-76
2022/07/21 06:19:21;;;;;;;13.90;10.38;;;;;;;20.88;70.38;101714.66;4997681;28;19922;-76
2022/07/21 06:21:47;;;;;;;10.85;8.65;;;;;;;20.86;70.14;101713.03;4980569;28;20034;-77
2022/07/21 06:24:13;;;;;;;12.52;8.20;;;;;;;20.86;70.27;101715.69;4969848;28;20196;-76
2022/07/21 06:26:39;;;;;;;9.65;7.53;;;;;;;20.85;70.22;101716.69;4998583;28;20044;-76
2022/07/21 06:29:06;;;;;;;10.85;8.35;;;;;;;20.85;70.44;101717.53;4980869;28;20092;-76
2022/07/21 06:31:31;;;;;;;11.73;7.70;;;;;;;20.84;70.48;101713.13;4997596;28;20174;-76
2022/07/21 06:33:57;;;;;;;9.85;7.63;;;;;;;20.85;70.50;101722.00;4974673;28;20345;-76
2022/07/21 06:36:22;;;;;;;11.40;6.35;;;;;;;20.84;70.40;101718.47;4992161;28;20046;-76
2022/07/21 06:38:47;;;;;;;8.68;6.53;;;;;;;20.83;70.25;101719.44;4997575;28;20056;-77
2022/07/21 06:41:13;;;;;;;7.70;6.82;;;;;;;20.82;70.52;101715.06;4997045;28;20110;-76
2022/07/21 06:43:39;;;;;;;9.07;7.05;;;;;;;20.82;69.77;101716.88;4980152;28;20076;-76
2022/07/21 06:46:05;;;;;;;10.52;7.18;;;;;;;20.80;70.08;101719.66;5003001;28;20065;-77
2022/07/21 06:48:30;;;;;;;10.73;7.20;;;;;;;20.80;70.54;101721.47;5002419;28;20045;-77
2022/07/21 06:50:56;;;;;;;7.50;6.55;;;;;;;20.78;70.16;101720.72;4997026;28;20030;-76
2022/07/21 06:53:22;;;;;;;7.25;5.93;;;;;;;20.77;70.08;101719.84;4994354;28;20061;-77
2022/07/21 06:55:52;;;;;;;5.22;4.43;;;;;;;20.75;70.08;101723.59;4994169;28;20113;-77
2022/07/21 06:58:19;;;;;;;4.20;3.80;;;;;;;20.75;70.03;101728.91;4974001;28;20452;-77
2022/07/21 07:00:45;;;;;;;3.20;3.00;;;;;;;20.75;70.13;101736.91;4979867;28;20054;-77
2022/07/21 07:03:12;;;;;;;3.10;2.80;;;;;;;20.74;70.03;101740.50;4995811;28;20049;-77
2022/07/21 07:05:38;;;;;;;3.55;3.25;;;;;;;20.74;70.35;101737.84;4998019;28;20025;-77
2022/07/21 07:08:04;;;;;;;3.75;3.00;;;;;;;20.74;69.93;101745.84;4996989;28;20054;-77
2022/07/21 07:10:30;;;;;;;3.88;3.00;;;;;;;20.73;70.54;101747.66;4984065;28;20281;-77
2022/07/21 07:12:55;;;;;;;3.65;3.35;;;;;;;20.72;70.44;101753.94;5001115;28;20280;-77
2022/07/21 07:15:22;;;;;;;3.85;3.40;;;;;;;20.71;70.82;101761.06;4996099;28;20051;-76
2022/07/21 07:17:48;;;;;;;4.57;3.65;;;;;;;20.71;70.74;101760.22;4995778;28;20077;-77
2022/07/21 07:20:14;;;;;;;3.92;3.63;;;;;;;20.69;70.36;101762.13;4997298;28;20341;-77
2022/07/21 07:22:39;;;;;;;3.95;3.05;;;;;;;20.66;70.32;101760.53;4996544;28;20041;-77
2022/07/21 07:25:05;;;;;;;8.50;3.15;;;;;;;20.66;70.26;101760.53;4984825;28;20048;-77
2022/07/21 07:27:31;;;;;;;4.95;4.22;;;;;;;20.66;70.76;101765.00;4981643;28;20337;-78
2022/07/21 07:29:56;;;;;;;5.50;3.75;;;;;;;20.64;70.59;101764.25;4997638;28;20042;-78
2022/07/21 07:32:21;;;;;;;4.55;2.92;;;;;;;20.63;70.71;101767.84;4994500;28;20393;-78
2022/07/21 07:34:47;;;;;;;4.68;3.72;;;;;;;20.63;71.67;101765.19;4994722;28;20046;-78
2022/07/21 07:37:12;;;;;;;2.90;2.65;;;;;;;20.63;71.52;101770.53;4992317;28;20061;-78
2022/07/21 07:39:38;;;;;;;2.70;2.50;;;;;;;20.60;70.91;101762.75;4995738;28;20030;-78
2022/07/21 07:42:04;;;;;;;4.43;2.72;;;;;;;20.58;70.97;101754.84;4994041;28;20101;-78
2022/07/21 07:44:30;;;;;;;2.78;2.58;;;;;;;20.57;71.55;101753.13;4992665;28;20345;-78
2022/07/21 07:46:56;;;;;;;7.38;3.00;;;;;;;20.57;70.95;101754.94;4991712;28;20038;-78
2022/07/21 07:49:21;;;;;;;3.50;3.20;;;;;;;20.55;71.02;101751.56;4994441;28;20038;-78
2022/07/21 07:51:48;;;;;;;4.78;3.70;;;;;;;20.56;70.80;101759.44;4984327;28;20102;-78
2022/07/21 07:54:14;;;;;;;5.72;3.55;;;;;;;20.54;71.61;101758.69;4995501;28;20042;-77
2022/07/21 07:56:39;;;;;;;9.13;4.75;;;;;;;20.52;70.94;101750.81;4996603;28;20046;-77
2022/07/21 07:59:04;;;;;;;5.85;5.35;;;;;;;20.53;71.20;101759.63;4973224;28;20046;-78
2022/07/21 08:01:30;;;;;;;7.20;5.40;;;;;;;20.52;71.41;101756.13;4992796;28;20348;-77
2022/07/21 08:03:56;;;;;;;6.55;5.53;;;;;;;20.50;71.34;101759.84;4974908;28;20121;-78
2022/07/21 08:06:21;;;;;;;9.35;6.35;;;;;;;20.49;71.27;101759.00;4982282;28;20391;-78
2022/07/21 08:08:47;;;;;;;7.35;6.20;;;;;;;20.49;71.13;101763.47;5004150;28;20448;-78
2022/07/21 08:11:13;;;;;;;8.18;6.65;;;;;;;20.47;71.40;101762.72;4994252;28;20033;-78
2022/07/21 08:13:38;;;;;;;9.23;6.28;;;;;;;20.45;71.36;101757.50;4986621;28;20026;-78
2022/07/21 08:16:04;;;;;;;9.30;6.43;;;;;;;20.45;71.43;101768.16;4995366;28;20076;-78
2022/07/21 08:18:29;;;;;;;7.07;6.05;;;;;;;20.45;71.30;101767.31;4986909;28;20031;-78
2022/07/21 08:20:55;;;;;;;8.80;6.40;;;;;;;20.45;71.44;101761.97;5003894;28;20057;-78
2022/07/21 08:23:20;;;;;;;7.45;5.88;;;;;;;20.44;71.73;101766.44;4989288;28;20084;-78
2022/07/21 08:25:45;;;;;;;7.80;6.10;;;;;;;20.43;71.53;101767.41;4990739;28;20049;-78
2022/07/21 08:28:11;;;;;;;13.05;6.45;;;;;;;20.42;71.45;101764.84;4984191;28;20268;-78
2022/07/21 08:30:37;;;;;;;9.95;6.28;;;;;;;20.41;71.34;101771.97;4993130;28;20038;-77
2022/07/21 08:33:03;;;;;;;9.52;6.07;;;;;;;20.40;70.98;101778.25;4993326;28;20049;-78
2022/07/21 08:35:28;;;;;;;10.45;5.90;;;;;;;20.38;71.24;101772.16;4977249;28;20041;-78
2022/07/21 08:37:59;;;;;;;7.93;6.18;;;;;;;20.40;70.88;101775.56;4995542;28;20050;-78
2022/07/21 08:40:26;;;;;;;7.63;5.97;;;;;;;20.39;71.60;101779.22;4977846;28;20029;-78
2022/07/21 08:42:52;;;;;;;7.95;5.63;;;;;;;20.37;71.45;101781.09;4995506;28;20037;-77
2022/07/21 08:45:18;;;;;;;6.25;5.00;;;;;;;20.37;71.25;101786.41;4984422;28;20046;-78
2022/07/21 08:47:44;;;;;;;8.73;5.65;;;;;;;20.36;71.33;101795.38;4992532;28;20114;-77
2022/07/21 08:50:09;;;;;;;9.88;5.90;;;;;;;20.36;71.26;101792.72;4960226;28;20034;-78
2022/07/21 08:52:35;;;;;;;8.38;5.47;;;;;;;20.35;71.49;101793.66;4991680;28;20333;-77
2022/07/21 08:55:00;;;;;;;9.43;5.70;;;;;;;20.35;71.59;101798.97;4994367;28;20226;-78
2022/07/21 08:57:26;;;;;;;9.00;5.30;;;;;;;20.32;71.40;101791.22;4995603;28;20101;-78
2022/07/21 08:59:51;;;;;;;7.22;4.97;;;;;;;20.31;71.49;101787.69;4995641;28;20050;-78
2022/07/21 09:02:28;;;;;;;7.63;5.82;;;;;;;20.32;71.50;101792.06;4993525;28;20050;-78
2022/07/21 09:04:54;;;;;;;5.78;4.72;;;;;;;20.33;71.53;101795.56;4993348;28;20033;-77
2022/07/21 09:07:22;;;;;;;7.90;5.05;;;;;;;20.32;71.65;101786.75;4998398;28;20034;-78
2022/07/21 09:09:58;;;;;;;5.78;4.45;;;;;;;20.32;71.78;101794.72;4979046;28;20062;-78
2022/07/21 09:12:25;;;;;;;5.88;4.00;;;;;;;20.32;71.35;101793.88;4994159;28;20037;-78
2022/07/21 09:14:51;;;;;;;5.57;4.47;;;;;;;20.31;71.43;101800.13;4997772;28;20045;-78
2022/07/21 09:17:18;;;;;;;5.85;3.90;;;;;;;20.31;71.65;101797.47;4994920;28;20038;-77
2022/07/21 09:19:46;;;;;;;8.15;4.18;;;;;;;20.31;71.35;101800.13;4995818;28;20038;-77
2022/07/21 09:22:18;;;;;;;3.92;2.85;;;;;;;20.27;71.18;101801.31;4993288;28;20033;-78
2022/07/21 09:24:48;;;;;;;3.47;3.28;;;;;;;20.27;71.45;101802.16;4994080;28;20041;-78
2022/07/21 09:27:23;;;;;;;3.10;2.80;;;;;;;20.28;71.73;101808.31;5000429;28;20018;-77
2022/07/21 09:29:59;;;;;;;3.03;2.70;;;;;;;20.26;71.53;101808.41;4995128;28;20473;-77
2022/07/21 09:32:30;;;;;;;3.33;2.88;;;;;;;20.26;71.75;101810.22;4976322;28;20245;-78
2022/07/21 09:35:04;;;;;;;3.20;2.83;;;;;;;20.24;72.24;101807.66;4974137;28;20045;-78
2022/07/21 09:37:30;;;;;;;2.67;2.47;;;;;;;20.22;71.95;101820.22;4993831;28;20046;-77
2022/07/21 09:39:57;;;;;;;3.00;2.80;;;;;;;20.21;71.80;101821.19;4995185;28;20113;-77
2022/07/21 09:42:28;;;;;;;4.45;2.50;;;;;;;20.20;71.88;101816.81;4994371;28;20341;-78
2022/07/21 09:44:59;;;;;;;2.75;2.33;;;;;;;20.18;72.02;101821.38;4990329;28;20049;-78
2022/07/21 09:47:26;;;;;;;3.92;2.03;;;;;;;20.19;72.00;101824.88;4992544;28;20245;-77
2022/07/21 09:49:53;;;;;;;2.30;2.10;;;;;;;20.17;72.01;101827.63;4994700;28;20258;-78
2022/07/21 09:52:30;;;;;;;3.13;1.80;;;;;;;20.17;71.92;101822.31;4994634;28;20055;-78
2022/07/21 09:55:00;;;;;;;3.70;2.20;;;;;;;20.17;72.09;101824.97;4985685;28;20038;-78
2022/07/21 09:57:27;;;;;;;4.15;1.80;;;;;;;20.16;71.75;101825.94;4997594;28;20030;-79
2022/07/21 09:59:53;;;;;;;2.10;1.70;;;;;;;20.14;71.67;101822.53;4960156;28;20092;-78
2022/07/21 10:02:25;;;;;;;1.80;1.60;;;;;;;20.14;71.65;101823.38;4994815;28;20098;-78
2022/07/21 10:05:07;;;;;;;1.58;1.48;;;;;;;20.13;71.60;101826.97;4993214;28;20096;-78
2022/07/21 10:07:35;;;;;;;1.58;1.30;;;;;;;20.13;71.81;101836.78;4992354;28;20049;-78
2022/07/21 10:10:01;;;;;;;2.65;1.20;;;;;;;20.13;72.03;101834.97;4988806;28;20031;-78
2022/07/21 10:12:27;;;;;;;3.25;1.20;;;;;;;20.12;71.76;101838.59;4994088;28;20069;-78
2022/07/21 10:14:53;;;;;;;1.40;1.30;;;;;;;20.12;72.06;101840.41;4995446;28;20038;-78
2022/07/21 10:17:20;;;;;;;2.40;1.00;;;;;;;20.12;71.99;101851.03;4994856;28;20056;-78
2022/07/21 10:20:07;;;;;;;1.52;1.30;;;;;;;20.11;72.07;101850.16;4990704;28;20046;-78
2022/07/21 10:23:05;;;;;;;2.80;1.23;;;;;;;20.09;72.73;101845.91;4996029;28;20029;-78
2022/07/21 10:25:31;;;;;;;;;;;;;;;20.08;72.26;101844.19;4986891;28;20043;-78
2022/07/21 10:28:28;;;;;;;2.35;1.20;;;;;;;20.08;72.09;101849.50;4993145;28;19944;-78
2022/07/21 10:30:57;;;;;;;2.10;1.57;;;;;;;20.09;73.22;101851.22;4988215;28;20041;-78
2022/07/21 10:33:45;;;;;;;4.63;1.48;;;;;;;20.08;73.63;101845.06;4990736;28;20282;-78
2022/07/21 10:36:33;;;;;;;3.38;1.40;;;;;;;20.08;72.81;101849.50;4989015;28;20026;-78
2022/07/21 10:39:10;;;;;;;2.75;1.50;;;;;;;20.06;72.46;101848.75;4980303;28;20050;-78
2022/07/21 10:41:54;;;;;;;2.47;1.52;;;;;;;20.07;72.63;101858.47;4998251;28;20044;-78
2022/07/21 10:44:39;;;;;;;6.70;1.95;;;;;;;20.06;72.55;101851.44;4979862;28;20030;-78
2022/07/21 10:47:30;;;;;;;1.45;1.33;;;;;;;20.05;72.10;101847.06;4979072;28;20018;-78
2022/07/21 10:50:01;;;;;;;1.50;1.40;;;;;;;20.07;72.75;101858.47;5000020;28;20029;-77
2022/07/21 10:52:35;;;;;;;2.88;1.40;;;;;;;20.06;72.58;101857.59;4987299;28;20132;-78
2022/07/21 10:55:10;;;;;;;2.08;1.20;;;;;;;20.08;73.61;101862.81;4975540;28;20053;-78
2022/07/21 10:57:40;;;;;;;2.10;1.00;;;;;;;20.06;73.94;101862.06;4987318;28;20060;-78
2022/07/21 11:00:28;;;;;;;0.88;0.88;;;;;;;20.06;73.97;101865.56;4992663;28;20057;-77
2022/07/21 11:03:00;;;;;;;1.83;1.10;;;;;;;20.05;73.99;101873.66;4996420;28;20038;-78
2022/07/21 11:05:28;;;;;;;2.03;1.08;;;;;;;20.06;73.85;101872.69;4995991;28;20029;-78
2022/07/21 11:08:12;;;;;;;1.20;1.08;;;;;;;20.04;74.23;101877.25;5002510;28;20045;-78
2022/07/21 11:10:44;;;;;;;0.80;0.80;;;;;;;20.05;74.80;101881.63;4997602;28;20097;-78
2022/07/21 11:13:09;;;;;;;0.82;0.75;;;;;;;20.02;74.54;101880.00;4999179;28;20048;-78
2022/07/21 11:15:47;;;;;;;0.65;0.55;;;;;;;20.00;74.26;101881.91;4987651;28;20070;-78
2022/07/21 11:18:18;;;;;;;2.20;1.10;;;;;;;20.00;74.04;101886.41;4998358;28;20038;-78
2022/07/21 11:20:57;;;;;;;0.88;0.70;;;;;;;19.99;74.42;101884.66;4981305;28;20034;-78
2022/07/21 11:23:34;;;;;;;1.00;0.70;;;;;;;19.98;74.49;101890.97;4998808;28;20225;-78
2022/07/21 11:25:59;;;;;;;1.98;0.80;;;;;;;19.97;74.09;101892.75;4999424;28;20106;-78
2022/07/21 11:28:25;;;;;;;1.50;0.70;;;;;;;19.96;74.05;101893.72;4997825;28;20046;-78